Time;durP1;ratioP1;P1;durP2;ratioP2;P2;SDS_P1;SDS_P2;PMS_P1;PMS_P2;Temp;Humidity;BMP_temperature;BMP_pressure;BME280_temperature;BME280_humidity;BME280_pressure;Samples;Min_cycle;Max_cycle;Signal;HPM_P1;HPM_P2
2023/07/26 00:00:43;;;;;;;2.80;0.90;;;24.40;99.90;;;;;;5035258;28;20029;-70
2023/07/26 00:03:09;;;;;;;2.05;0.75;;;24.30;99.90;;;;;;5035632;28;20051;-70
2023/07/26 00:05:35;;;;;;;2.08;0.52;;;24.40;99.90;;;;;;5035380;28;20382;-70
2023/07/26 00:08:00;;;;;;;0.70;0.70;;;24.30;99.90;;;;;;5035742;28;20017;-70
2023/07/26 00:10:26;;;;;;;1.13;0.73;;;24.30;99.90;;;;;;5033705;28;20029;-70
2023/07/26 00:12:51;;;;;;;2.47;0.70;;;24.30;99.90;;;;;;5038218;28;20471;-70
2023/07/26 00:15:17;;;;;;;0.85;0.52;;;24.30;99.90;;;;;;5035683;28;20033;-70
2023/07/26 00:17:43;;;;;;;2.60;0.70;;;24.30;99.90;;;;;;5035036;28;20037;-70
2023/07/26 00:20:09;;;;;;;3.05;0.70;;;24.10;99.90;;;;;;5035575;28;20436;-70
2023/07/26 00:22:35;;;;;;;0.75;0.40;;;24.20;99.90;;;;;;5035417;28;20033;-70
2023/07/26 00:25:09;;;;;;;2.72;0.50;;;24.20;99.90;;;;;;5035215;28;20419;-70
2023/07/26 00:27:35;;;;;;;0.73;0.50;;;24.10;99.90;;;;;;5034997;28;20025;-70
2023/07/26 00:30:01;;;;;;;2.30;0.73;;;24.20;99.90;;;;;;5035165;28;20022;-70
2023/07/26 00:32:27;;;;;;;1.45;0.55;;;24.10;99.90;;;;;;5035144;28;20451;-70
2023/07/26 00:34:54;;;;;;;0.30;0.30;;;24.10;99.90;;;;;;5034716;28;20399;-70
2023/07/26 00:37:19;;;;;;;5.13;0.85;;;24.10;99.90;;;;;;5021783;28;20040;-70
2023/07/26 00:39:45;;;;;;;0.93;0.68;;;24.10;99.90;;;;;;5031662;28;20018;-70
2023/07/26 00:42:14;;;;;;;0.70;0.57;;;24.00;99.90;;;;;;5034989;28;20037;-70
2023/07/26 00:44:40;;;;;;;0.77;0.57;;;24.00;99.90;;;;;;5035052;28;20034;-70
2023/07/26 00:47:05;;;;;;;0.47;0.47;;;23.90;99.90;;;;;;5034715;28;20430;-70
2023/07/26 00:49:31;;;;;;;2.15;0.47;;;24.00;99.90;;;;;;5034735;28;20025;-70
2023/07/26 00:51:57;;;;;;;0.43;0.43;;;24.00;99.90;;;;;;5034666;28;20524;-70
2023/07/26 00:54:23;;;;;;;0.70;0.50;;;24.00;99.90;;;;;;5034339;28;20026;-70
2023/07/26 00:56:48;;;;;;;0.40;0.40;;;24.00;99.90;;;;;;5034360;28;20037;-70
2023/07/26 00:59:14;;;;;;;1.13;0.60;;;24.00;99.90;;;;;;5034470;28;20056;-70
2023/07/26 01:01:40;;;;;;;0.40;0.40;;;24.00;99.90;;;;;;5034377;28;20029;-70
2023/07/26 01:04:06;;;;;;;2.55;0.50;;;23.90;99.90;;;;;;5034615;28;20030;-70
2023/07/26 01:06:40;;;;;;;0.43;0.43;;;23.90;99.90;;;;;;5034543;28;20557;-70
2023/07/26 01:09:24;;;;;;;1.85;0.52;;;23.80;99.90;;;;;;5034443;28;20371;-70
2023/07/26 01:11:49;;;;;;;5.00;0.98;;;23.80;99.90;;;;;;5033403;28;20132;-70
2023/07/26 01:14:27;;;;;;;0.52;0.50;;;23.80;99.90;;;;;;5033731;28;20511;-70
2023/07/26 01:16:53;;;;;;;1.88;0.63;;;23.80;99.90;;;;;;5032874;28;20029;-70
2023/07/26 01:19:19;;;;;;;1.02;0.40;;;23.80;99.90;;;;;;5032960;28;20040;-70
2023/07/26 01:21:44;;;;;;;2.83;0.50;;;23.70;99.90;;;;;;5032722;28;20398;-70
2023/07/26 01:24:10;;;;;;;1.75;0.50;;;23.70;99.90;;;;;;5033284;28;20067;-70
2023/07/26 01:26:35;;;;;;;2.20;0.60;;;23.60;99.90;;;;;;5033220;28;20380;-70
2023/07/26 01:29:01;;;;;;;0.63;0.40;;;23.60;99.90;;;;;;5033322;28;20120;-70
2023/07/26 01:31:27;;;;;;;0.82;0.40;;;23.70;99.90;;;;;;5033085;28;20376;-70
2023/07/26 01:33:53;;;;;;;1.25;0.52;;;23.60;99.90;;;;;;5033251;28;20021;-70
2023/07/26 01:36:22;;;;;;;1.38;0.20;;;23.60;99.90;;;;;;5032951;28;20116;-70
2023/07/26 01:38:49;;;;;;;0.40;0.40;;;23.60;99.90;;;;;;5033464;28;20064;-70
2023/07/26 01:41:16;;;;;;;1.58;0.38;;;23.50;99.90;;;;;;5031023;28;20037;-70
2023/07/26 01:43:43;;;;;;;0.65;0.47;;;23.50;99.90;;;;;;5029594;28;20018;-70
2023/07/26 01:46:12;;;;;;;0.20;0.20;;;23.40;99.90;;;;;;5032768;28;20543;-70
2023/07/26 01:48:39;;;;;;;0.30;0.30;;;23.30;99.90;;;;;;5033613;28;20025;-70
2023/07/26 01:51:04;;;;;;;0.52;0.40;;;23.40;99.90;;;;;;5032630;28;20026;-69
2023/07/26 01:53:30;;;;;;;0.50;0.40;;;23.40;99.90;;;;;;5033864;28;20028;-70
2023/07/26 01:55:56;;;;;;;1.83;0.35;;;23.40;99.90;;;;;;5033625;28;20028;-70
2023/07/26 01:58:21;;;;;;;0.20;0.20;;;23.40;99.90;;;;;;5033469;28;20406;-69
2023/07/26 02:00:47;;;;;;;0.20;0.20;;;23.30;99.90;;;;;;5033426;28;20346;-69
2023/07/26 02:03:12;;;;;;;0.30;0.30;;;23.40;99.90;;;;;;5033218;28;20030;-69
2023/07/26 02:05:45;;;;;;;0.25;0.20;;;23.30;99.90;;;;;;5031921;28;20028;-70
2023/07/26 02:08:11;;;;;;;0.20;0.20;;;23.20;99.90;;;;;;5033292;28;20038;-69
2023/07/26 02:10:38;;;;;;;0.15;0.15;;;23.30;99.90;;;;;;5033494;28;20108;-70
2023/07/26 02:13:03;;;;;;;0.22;0.20;;;23.40;99.90;;;;;;5033501;28;20430;-70
2023/07/26 02:15:29;;;;;;;0.73;0.50;;;23.30;99.90;;;;;;5033234;28;20045;-69
2023/07/26 02:17:55;;;;;;;0.30;0.20;;;23.40;99.90;;;;;;5033099;28;20037;-70
2023/07/26 02:20:20;;;;;;;0.20;0.20;;;23.30;99.90;;;;;;5033050;28;20112;-69
2023/07/26 02:22:46;;;;;;;0.10;0.10;;;23.30;99.90;;;;;;5033193;28;20064;-70
2023/07/26 02:25:37;;;;;;;0.28;0.17;;;23.20;99.90;;;;;;5033073;28;20518;-70
2023/07/26 02:28:03;;;;;;;1.48;0.20;;;23.20;99.90;;;;;;5033143;28;20064;-69
2023/07/26 02:30:28;;;;;;;0.20;0.20;;;23.10;99.90;;;;;;5019339;28;20029;-69
2023/07/26 02:32:54;;;;;;;0.88;0.25;;;23.10;99.90;;;;;;5033065;28;20372;-69
2023/07/26 02:35:19;;;;;;;0.65;0.20;;;23.10;99.90;;;;;;5032979;28;20025;-69
2023/07/26 02:37:45;;;;;;;0.25;0.10;;;23.00;99.90;;;;;;5027698;28;20049;-69
2023/07/26 02:40:11;;;;;;;0.10;0.10;;;23.00;99.90;;;;;;5030796;28;20391;-69
2023/07/26 02:42:37;;;;;;;0.90;0.30;;;23.00;99.90;;;;;;5030046;28;20025;-69
2023/07/26 02:45:03;;;;;;;1.15;0.20;;;23.10;99.90;;;;;;5031521;28;20418;-69
2023/07/26 02:47:32;;;;;;;0.30;0.10;;;23.10;99.90;;;;;;5029287;28;20410;-69
2023/07/26 02:50:04;;;;;;;2.83;0.20;;;22.90;99.90;;;;;;5019021;28;20029;-69
2023/07/26 02:52:32;;;;;;;0.40;0.28;;;23.00;99.90;;;;;;5026565;28;20018;-69
2023/07/26 02:54:58;;;;;;;0.82;0.10;;;23.00;99.90;;;;;;5019423;28;20026;-69
2023/07/26 02:57:24;;;;;;;0.60;0.20;;;23.00;99.90;;;;;;5026075;28;20054;-69
2023/07/26 02:59:50;;;;;;;1.23;0.30;;;22.90;99.90;;;;;;5032327;28;20156;-69
2023/07/26 03:02:15;;;;;;;3.60;0.25;;;23.00;99.90;;;;;;5022765;28;20026;-69
2023/07/26 03:04:41;;;;;;;0.57;0.10;;;23.00;99.90;;;;;;5013026;28;20026;-69
2023/07/26 03:07:07;;;;;;;0.05;0.05;;;23.00;99.90;;;;;;5020687;28;20034;-69
2023/07/26 03:09:36;;;;;;;0.20;0.10;;;23.00;99.90;;;;;;5032905;28;20483;-69
2023/07/26 03:12:02;;;;;;;0.13;0.13;;;23.00;99.90;;;;;;5019263;28;20379;-69
2023/07/26 03:14:29;;;;;;;0.85;0.10;;;23.00;99.90;;;;;;5031587;28;20399;-69
2023/07/26 03:16:54;;;;;;;0.00;0.00;;;22.90;99.90;;;;;;5034994;28;20044;-69
2023/07/26 03:19:20;;;;;;;0.65;0.20;;;22.90;99.90;;;;;;5026486;28;20472;-69
2023/07/26 03:21:46;;;;;;;0.10;0.10;;;22.80;99.90;;;;;;5016412;28;20026;-69
2023/07/26 03:24:11;;;;;;;0.20;0.20;;;22.80;99.90;;;;;;5024410;28;20112;-69
2023/07/26 03:26:37;;;;;;;0.20;0.10;;;22.70;99.90;;;;;;5036480;28;20422;-69
2023/07/26 03:29:02;;;;;;;0.10;0.10;;;22.80;99.90;;;;;;5036136;28;20061;-69
2023/07/26 03:31:28;;;;;;;0.10;0.10;;;22.70;99.90;;;;;;5036780;28;20032;-69
2023/07/26 03:33:54;;;;;;;1.17;0.10;;;22.80;99.90;;;;;;5036376;28;20026;-69
2023/07/26 03:36:19;;;;;;;0.10;0.10;;;22.80;99.90;;;;;;5034700;28;20087;-69
2023/07/26 03:38:45;;;;;;;0.10;0.10;;;22.80;99.90;;;;;;5035891;28;20033;-69
2023/07/26 03:41:11;;;;;;;0.10;0.10;;;22.80;99.90;;;;;;5036237;28;20026;-69
2023/07/26 03:43:36;;;;;;;1.90;0.13;;;22.80;99.90;;;;;;5035939;28;20029;-69
2023/07/26 03:46:02;;;;;;;1.15;0.20;;;22.80;99.90;;;;;;5029969;28;20026;-69
2023/07/26 03:48:28;;;;;;;0.10;0.10;;;22.80;99.90;;;;;;5035712;28;20475;-69
2023/07/26 03:50:54;;;;;;;0.20;0.10;;;22.80;99.90;;;;;;5034685;28;20036;-69
2023/07/26 03:53:19;;;;;;;0.85;0.10;;;22.80;99.90;;;;;;5027114;28;20038;-69
2023/07/26 03:55:45;;;;;;;1.20;0.13;;;22.80;99.90;;;;;;5016039;28;20032;-69
2023/07/26 03:58:11;;;;;;;0.15;0.10;;;22.80;99.90;;;;;;5022476;28;20478;-69
2023/07/26 04:00:36;;;;;;;0.85;0.20;;;22.80;99.90;;;;;;5034483;28;20104;-69
2023/07/26 04:03:02;;;;;;;1.75;0.10;;;22.90;99.90;;;;;;5035518;28;20031;-69
2023/07/26 04:05:28;;;;;;;0.20;0.20;;;22.90;99.90;;;;;;5035328;28;20022;-69
2023/07/26 04:07:54;;;;;;;0.10;0.10;;;22.90;99.90;;;;;;5035479;28;20030;-69
2023/07/26 04:10:19;;;;;;;0.13;0.13;;;22.80;99.90;;;;;;5035700;28;20021;-69
2023/07/26 04:12:45;;;;;;;0.30;0.20;;;22.80;99.90;;;;;;5035638;28;20064;-69
2023/07/26 04:15:11;;;;;;;2.10;0.13;;;22.90;99.90;;;;;;5035586;28;20119;-70
2023/07/26 04:17:36;;;;;;;2.83;0.20;;;22.80;99.90;;;;;;5034898;28;20033;-69
2023/07/26 04:20:02;;;;;;;0.30;0.10;;;22.80;99.90;;;;;;5033950;28;20075;-69
2023/07/26 04:22:28;;;;;;;2.17;0.20;;;22.80;99.90;;;;;;5035534;28;20037;-69
2023/07/26 04:24:54;;;;;;;0.65;0.20;;;22.80;99.90;;;;;;5034851;28;20091;-69
2023/07/26 04:27:19;;;;;;;0.88;0.10;;;22.90;99.90;;;;;;5026524;28;20026;-69
2023/07/26 04:29:46;;;;;;;0.28;0.20;;;22.80;99.90;;;;;;5029285;28;20026;-69
2023/07/26 04:32:11;;;;;;;0.15;0.10;;;22.80;99.90;;;;;;5035237;28;20025;-69
2023/07/26 04:34:37;;;;;;;0.15;0.10;;;22.80;99.90;;;;;;5035095;28;20534;-69
2023/07/26 04:37:03;;;;;;;0.30;0.10;;;22.80;99.90;;;;;;5034971;28;20033;-69
2023/07/26 04:39:28;;;;;;;0.98;0.30;;;22.80;99.90;;;;;;5034928;28;20490;-69
2023/07/26 04:41:54;;;;;;;0.30;0.25;;;22.80;99.90;;;;;;5033492;28;20470;-69
2023/07/26 04:44:20;;;;;;;0.82;0.43;;;22.80;99.90;;;;;;5034800;28;20030;-69
2023/07/26 04:46:45;;;;;;;0.85;0.30;;;22.80;99.90;;;;;;5034829;28;20021;-69
2023/07/26 04:49:11;;;;;;;0.80;0.30;;;22.80;99.90;;;;;;5034614;28;20029;-69
2023/07/26 04:51:37;;;;;;;1.00;0.25;;;22.70;99.90;;;;;;5033381;28;20064;-70
2023/07/26 04:54:02;;;;;;;0.30;0.30;;;22.70;99.90;;;;;;5019986;28;20518;-69
2023/07/26 04:56:28;;;;;;;1.67;0.20;;;22.70;99.90;;;;;;5014732;28;20021;-69
2023/07/26 04:58:54;;;;;;;3.30;0.20;;;22.70;99.90;;;;;;5014631;28;20057;-70
2023/07/26 05:01:19;;;;;;;0.85;0.28;;;22.70;99.90;;;;;;5032023;28;20033;-70
2023/07/26 05:03:45;;;;;;;1.55;0.40;;;22.70;99.90;;;;;;5033138;28;20037;-70
2023/07/26 05:06:11;;;;;;;0.50;0.20;;;22.60;99.90;;;;;;5034214;28;20043;-70
2023/07/26 05:08:38;;;;;;;0.30;0.30;;;22.70;99.90;;;;;;5034588;28;20100;-70
2023/07/26 05:11:05;;;;;;;0.35;0.20;;;22.80;99.90;;;;;;5034370;28;20040;-70
2023/07/26 05:13:31;;;;;;;0.98;0.57;;;22.80;99.90;;;;;;5014466;28;20514;-70
2023/07/26 05:15:57;;;;;;;0.95;0.60;;;22.80;99.90;;;;;;5026374;28;20049;-70
2023/07/26 05:18:23;;;;;;;0.32;0.32;;;22.80;99.90;;;;;;5033996;28;20040;-70
2023/07/26 05:20:52;;;;;;;0.52;0.50;;;22.80;99.90;;;;;;5034130;28;20030;-70
2023/07/26 05:23:18;;;;;;;4.60;0.50;;;22.80;99.90;;;;;;5034145;28;20029;-69
2023/07/26 05:25:44;;;;;;;0.50;0.50;;;22.80;99.90;;;;;;5025366;28;20041;-69
2023/07/26 05:28:10;;;;;;;1.40;0.45;;;22.90;99.90;;;;;;5015456;28;20026;-69
2023/07/26 05:30:38;;;;;;;0.63;0.28;;;22.90;99.90;;;;;;5034007;28;20026;-70
2023/07/26 05:33:04;;;;;;;0.80;0.40;;;22.90;99.90;;;;;;5033727;28;20040;-69
2023/07/26 05:35:30;;;;;;;1.55;0.30;;;23.00;99.90;;;;;;5033836;28;20029;-69
2023/07/26 05:37:55;;;;;;;1.23;0.45;;;23.00;99.90;;;;;;5034133;28;20541;-69
2023/07/26 05:40:21;;;;;;;1.38;0.52;;;23.00;99.90;;;;;;5033189;28;20105;-69
2023/07/26 05:42:47;;;;;;;3.30;0.55;;;23.00;99.90;;;;;;5033682;28;20021;-69
2023/07/26 05:45:12;;;;;;;0.85;0.50;;;23.00;99.90;;;;;;5033895;28;20025;-69
2023/07/26 05:47:38;;;;;;;2.80;0.50;;;23.00;99.90;;;;;;5033955;28;20045;-69
2023/07/26 05:50:07;;;;;;;0.47;0.47;;;23.10;99.90;;;;;;5031956;28;20029;-69
2023/07/26 05:52:33;;;;;;;2.58;0.82;;;23.10;99.90;;;;;;5031109;28;20037;-68
2023/07/26 05:54:58;;;;;;;5.78;1.25;;;23.10;99.90;;;;;;5020913;28;20025;-69
2023/07/26 05:57:24;;;;;;;3.28;0.77;;;23.10;99.90;;;;;;5033524;28;20466;-69
2023/07/26 05:59:50;;;;;;;2.95;0.65;;;23.10;99.90;;;;;;5033536;28;20041;-69
2023/07/26 06:02:16;;;;;;;1.83;0.50;;;23.10;99.90;;;;;;5032298;28;20048;-69
2023/07/26 06:04:41;;;;;;;1.15;0.68;;;23.10;99.90;;;;;;5032431;28;20022;-69
2023/07/26 06:07:07;;;;;;;2.38;0.30;;;23.10;99.90;;;;;;5032368;28;20029;-69
2023/07/26 06:09:33;;;;;;;1.83;0.47;;;23.20;99.90;;;;;;5030999;28;20044;-69
2023/07/26 06:11:59;;;;;;;2.08;0.30;;;23.30;99.90;;;;;;5033082;28;20498;-69
2023/07/26 06:14:25;;;;;;;0.70;0.60;;;23.30;99.90;;;;;;5033258;28;20091;-69
2023/07/26 06:16:51;;;;;;;2.78;0.60;;;23.30;99.90;;;;;;5032098;28;20029;-69
2023/07/26 06:19:17;;;;;;;1.70;0.40;;;23.40;99.90;;;;;;5033125;28;20038;-69
2023/07/26 06:21:43;;;;;;;1.85;0.68;;;23.30;99.90;;;;;;5019291;28;20033;-69
2023/07/26 06:24:08;;;;;;;4.30;1.00;;;23.40;99.90;;;;;;5032949;28;20033;-69
2023/07/26 06:26:34;;;;;;;4.45;0.40;;;23.40;99.90;;;;;;5033056;28;20059;-69
2023/07/26 06:29:00;;;;;;;0.75;0.60;;;23.40;99.90;;;;;;5031759;28;20479;-69
2023/07/26 06:31:25;;;;;;;2.08;0.40;;;23.50;99.90;;;;;;5031756;28;20128;-69
2023/07/26 06:33:51;;;;;;;1.10;0.45;;;23.40;99.90;;;;;;5032998;28;20071;-69
2023/07/26 06:36:17;;;;;;;1.50;0.57;;;23.50;99.90;;;;;;5032881;28;20028;-69
2023/07/26 06:38:42;;;;;;;2.63;0.60;;;23.50;99.90;;;;;;5033057;28;20045;-70
2023/07/26 06:41:08;;;;;;;0.63;0.43;;;23.60;99.90;;;;;;5033160;28;20418;-69
2023/07/26 06:43:33;;;;;;;1.73;0.52;;;23.70;99.90;;;;;;5032722;28;20026;-69
2023/07/26 06:45:59;;;;;;;1.65;0.68;;;23.60;99.90;;;;;;5032715;28;20021;-69
2023/07/26 06:48:25;;;;;;;4.57;0.80;;;23.80;99.90;;;;;;5032861;28;20143;-69
2023/07/26 06:50:50;;;;;;;3.25;0.70;;;23.80;99.90;;;;;;5032600;28;20040;-69
2023/07/26 06:53:16;;;;;;;2.67;0.57;;;23.90;99.90;;;;;;5037042;28;20017;-69
2023/07/26 06:55:42;;;;;;;3.40;0.70;;;23.90;99.90;;;;;;5037016;28;20036;-69
2023/07/26 06:58:07;;;;;;;0.98;0.60;;;23.90;99.90;;;;;;5036751;28;20045;-69
2023/07/26 07:00:33;;;;;;;4.93;0.93;;;23.90;99.90;;;;;;5036582;28;20042;-69
2023/07/26 07:03:00;;;;;;;2.90;0.50;;;23.90;99.90;;;;;;5036864;28;20390;-70
2023/07/26 07:05:30;;;;;;;2.22;0.90;;;24.00;99.90;;;;;;5036977;28;20025;-70
2023/07/26 07:07:56;;;;;;;1.02;0.43;;;24.10;99.90;;;;;;5036764;28;20545;-70
2023/07/26 07:10:22;;;;;;;3.13;0.70;;;24.10;99.90;;;;;;5036850;28;20045;-70
2023/07/26 07:12:49;;;;;;;0.98;0.70;;;24.00;99.90;;;;;;5036515;28;20487;-69
2023/07/26 07:15:14;;;;;;;2.92;0.68;;;24.10;99.90;;;;;;5036322;28;20029;-70
2023/07/26 07:17:40;;;;;;;0.90;0.60;;;24.10;99.90;;;;;;5036325;28;20049;-69
2023/07/26 07:20:07;;;;;;;0.70;0.57;;;24.20;99.90;;;;;;5036515;28;20481;-69
2023/07/26 07:22:36;;;;;;;3.70;0.60;;;24.20;99.90;;;;;;5036241;28;20030;-70
2023/07/26 07:25:02;;;;;;;0.80;0.60;;;24.20;99.90;;;;;;5036324;28;20044;-70
2023/07/26 07:27:28;;;;;;;3.53;0.75;;;24.20;99.90;;;;;;5036186;28;20171;-70
2023/07/26 07:29:54;;;;;;;6.53;0.98;;;24.30;99.90;;;;;;5036149;28;20515;-69
2023/07/26 07:32:20;;;;;;;1.20;0.50;;;24.40;99.90;;;;;;5036161;28;20080;-70
2023/07/26 07:34:47;;;;;;;0.88;0.85;;;24.40;99.90;;;;;;5036114;28;20029;-69
2023/07/26 07:37:13;;;;;;;2.00;0.80;;;24.40;99.90;;;;;;5034716;28;20041;-69
2023/07/26 07:39:39;;;;;;;2.33;0.70;;;24.40;99.90;;;;;;5036382;28;20360;-70
2023/07/26 07:42:05;;;;;;;1.30;1.08;;;24.50;99.90;;;;;;5035990;28;20017;-70
2023/07/26 07:44:30;;;;;;;1.95;1.00;;;24.50;99.90;;;;;;5036026;28;20025;-70
2023/07/26 07:46:56;;;;;;;1.50;0.77;;;24.60;99.90;;;;;;5036052;28;20133;-70
2023/07/26 07:49:23;;;;;;;2.80;1.40;;;24.60;99.90;;;;;;5036158;28;20045;-70
2023/07/26 07:51:49;;;;;;;2.47;0.60;;;24.60;99.90;;;;;;5035881;28;20108;-70
2023/07/26 07:54:15;;;;;;;0.70;0.70;;;24.60;99.90;;;;;;5035746;28;20455;-70
2023/07/26 07:56:40;;;;;;;1.38;0.73;;;24.70;99.90;;;;;;5035684;28;20120;-70
2023/07/26 07:59:06;;;;;;;3.25;0.98;;;24.70;99.90;;;;;;5035668;28;20057;-70
2023/07/26 08:01:33;;;;;;;1.75;0.98;;;24.70;99.90;;;;;;5035436;28;20060;-70
2023/07/26 08:03:59;;;;;;;0.85;0.73;;;24.80;99.90;;;;;;5035872;28;20455;-70
2023/07/26 08:06:25;;;;;;;0.90;0.70;;;24.80;99.90;;;;;;5035531;28;20455;-70
2023/07/26 08:08:51;;;;;;;1.50;0.90;;;24.90;99.90;;;;;;5035475;28;20030;-70
2023/07/26 08:11:17;;;;;;;2.20;0.98;;;24.90;99.90;;;;;;5035560;28;20024;-70
2023/07/26 08:13:43;;;;;;;2.42;0.77;;;24.90;99.90;;;;;;5035383;28;20029;-68
2023/07/26 08:16:09;;;;;;;2.53;0.90;;;25.00;99.90;;;;;;5035484;28;20029;-68
2023/07/26 08:18:34;;;;;;;0.80;0.60;;;25.00;99.90;;;;;;5035160;28;20044;-68
2023/07/26 08:21:00;;;;;;;2.38;0.93;;;25.00;99.90;;;;;;5035194;28;20025;-68
2023/07/26 08:23:26;;;;;;;1.30;0.80;;;25.00;99.90;;;;;;5035100;28;20041;-68
2023/07/26 08:25:52;;;;;;;2.28;0.85;;;25.10;99.90;;;;;;5035209;28;20096;-68
2023/07/26 08:28:17;;;;;;;1.25;0.70;;;25.10;99.90;;;;;;5035375;28;20029;-68
2023/07/26 08:30:43;;;;;;;0.85;0.80;;;25.20;99.90;;;;;;5035002;28;20014;-68
2023/07/26 08:33:09;;;;;;;1.63;0.70;;;25.20;99.90;;;;;;5035062;28;20025;-68
2023/07/26 08:35:34;;;;;;;1.88;0.60;;;25.20;99.90;;;;;;5034880;28;20438;-68
2023/07/26 08:38:00;;;;;;;2.03;0.98;;;;;;;;;;5033555;28;20049;-69
2023/07/26 08:40:26;;;;;;;1.13;0.85;;;25.50;99.90;;;;;;5034757;28;20075;-68
2023/07/26 08:42:54;;;;;;;1.10;0.80;;;25.40;99.90;;;;;;5034730;28;20091;-68
2023/07/26 08:45:20;;;;;;;5.20;1.33;;;25.40;99.90;;;;;;5031766;28;20132;-68
2023/07/26 08:47:46;;;;;;;1.13;1.05;;;25.50;99.90;;;;;;5023742;28;20511;-68
2023/07/26 08:50:12;;;;;;;2.35;1.20;;;25.40;99.90;;;;;;5034935;28;20438;-68
2023/07/26 08:52:38;;;;;;;1.38;1.13;;;25.50;99.90;;;;;;5034646;28;20014;-68
2023/07/26 08:55:04;;;;;;;2.00;1.10;;;25.60;99.90;;;;;;5034316;28;20030;-68
2023/07/26 08:57:30;;;;;;;1.10;1.00;;;25.60;99.90;;;;;;5034338;28;20029;-68
2023/07/26 08:59:56;;;;;;;2.33;0.93;;;25.60;99.90;;;;;;5034193;28;20049;-68
2023/07/26 09:02:23;;;;;;;1.23;0.90;;;25.60;99.90;;;;;;5016620;28;20025;-70
2023/07/26 09:04:49;;;;;;;3.17;1.10;;;25.60;99.90;;;;;;5033243;28;20037;-70
2023/07/26 09:07:14;;;;;;;1.23;0.80;;;25.70;99.90;;;;;;5034480;28;20471;-70
2023/07/26 09:09:40;;;;;;;1.00;0.80;;;25.70;99.90;;;;;;5034707;28;20018;-69
2023/07/26 09:12:56;;;;;;;1.20;1.10;;;25.70;99.90;;;;;;5034318;28;20021;-70
2023/07/26 09:15:24;;;;;;;2.88;0.98;;;;;;;;;;5026195;28;20059;-70
2023/07/26 09:17:50;;;;;;;1.77;1.10;;;;;;;;;;5034143;28;20044;-70
2023/07/26 09:20:23;;;;;;;0.85;0.85;;;;;;;;;;5034270;28;20028;-70
2023/07/26 09:22:53;;;;;;;1.07;0.97;;;;;;;;;;5034184;28;20048;-70
2023/07/26 09:25:39;;;;;;;0.80;0.80;;;25.90;99.90;;;;;;5032949;28;20268;-70
2023/07/26 09:28:06;;;;;;;1.38;1.00;;;26.50;99.90;;;;;;5033340;28;20026;-70
2023/07/26 09:30:52;;;;;;;2.58;0.90;;;26.40;99.90;;;;;;5019744;28;20194;-70
2023/07/26 09:33:21;;;;;;;1.45;0.90;;;26.40;99.90;;;;;;5030438;28;20037;-70
2023/07/26 09:35:49;;;;;;;2.35;1.15;;;26.60;99.90;;;;;;5032833;28;20108;-68
2023/07/26 09:38:23;;;;;;;2.45;1.45;;;26.50;99.90;;;;;;5032714;28;20033;-68
2023/07/26 09:40:49;;;;;;;2.38;0.90;;;26.60;99.90;;;;;;5032620;28;20100;-68
2023/07/26 09:43:32;;;;;;;1.20;0.90;;;26.80;99.90;;;;;;5032274;28;20072;-68
2023/07/26 09:46:02;;;;;;;0.88;0.88;;;26.90;99.90;;;;;;5032024;28;20349;-68
2023/07/26 09:48:28;;;;;;;1.25;1.15;;;26.90;99.90;;;;;;5033486;28;20037;-68
2023/07/26 09:50:55;;;;;;;1.15;1.00;;;26.80;99.90;;;;;;5033186;28;20038;-68
2023/07/26 09:53:22;;;;;;;0.85;0.85;;;;;;;;;;5033480;28;20033;-68
2023/07/26 09:55:49;;;;;;;1.38;1.10;;;;;;;;;;5032831;28;20049;-68
2023/07/26 09:58:17;;;;;;;2.85;1.35;;;;;;;;;;5033709;28;20045;-67
2023/07/26 10:00:44;;;;;;;2.40;1.60;;;;;;;;;;5019465;28;20410;-68
2023/07/26 10:03:11;;;;;;;1.73;1.63;;;27.10;99.90;;;;;;5033440;28;20028;-67
2023/07/26 10:05:44;;;;;;;1.23;1.23;;;27.50;99.90;;;;;;5033477;28;20348;-68
2023/07/26 10:08:13;;;;;;;1.77;1.10;;;27.30;99.90;;;;;;5033444;28;20029;-68
2023/07/26 10:10:41;;;;;;;1.63;1.52;;;27.40;99.90;;;;;;5033244;28;20026;-69
2023/07/26 10:13:09;;;;;;;2.00;1.58;;;27.40;99.90;;;;;;5033150;28;20028;-69
2023/07/26 10:15:36;;;;;;;2.80;2.20;;;27.50;99.90;;;;;;5033443;28;20073;-69
2023/07/26 10:18:02;;;;;;;1.73;1.63;;;27.60;99.90;;;;;;5033282;28;20368;-70
2023/07/26 10:20:27;;;;;;;1.80;1.10;;;27.50;99.90;;;;;;5033120;28;20083;-70
2023/07/26 10:22:55;;;;;;;1.30;1.20;;;;;;;;;;5022502;28;20476;-67
2023/07/26 10:25:21;;;;;;;3.15;1.98;;;;;;;;;;5028649;28;20021;-69
2023/07/26 10:27:47;;;;;;;1.38;1.27;;;;;;;;;;5031847;28;20034;-68
2023/07/26 10:30:13;;;;;;;1.58;1.25;;;;;;;;;;5031104;28;20034;-69
2023/07/26 10:32:41;;;;;;;2.65;1.40;;;;;;;;;;5033037;28;20033;-68
2023/07/26 10:35:10;;;;;;;2.05;1.60;;;;;;;;;;5033190;28;20037;-68
2023/07/26 10:37:36;;;;;;;1.40;1.30;;;;;;;;;;5032625;28;20036;-69
2023/07/26 10:40:26;;;;;;;1.00;1.00;;;;;;;;;;5031628;28;20059;-70
2023/07/26 10:42:52;;;;;;;1.30;1.20;;;;;;;;;;5032422;28;20364;-70
2023/07/26 10:45:37;;;;;;;1.00;1.00;;;;;;;;;;5032834;28;20483;-70
2023/07/26 10:48:03;;;;;;;1.50;1.40;;;;;;;;;;5013242;28;20030;-70
2023/07/26 10:50:31;;;;;;;1.83;1.10;;;;;;;;;;5025883;28;20034;-70
2023/07/26 10:52:57;;;;;;;3.05;1.55;;;;;;;;;;5032679;28;20036;-70
2023/07/26 10:55:27;;;;;;;1.45;1.35;;;;;;;;;;5032797;28;20060;-70
2023/07/26 10:57:53;;;;;;;1.23;1.00;;;;;;;;;;5031326;28;20038;-68
2023/07/26 11:00:32;;;;;;;1.75;1.48;;;;;;;;;;5032526;28;20053;-69
2023/07/26 11:03:02;;;;;;;1.95;1.60;;;;;;;;;;5031303;28;20057;-68
2023/07/26 11:05:32;;;;;;;1.75;1.55;;;;;;;;;;5032794;28;20026;-68
2023/07/26 11:08:05;;;;;;;1.52;1.25;;;;;;;;;;5032782;28;20117;-68
2023/07/26 11:10:38;;;;;;;1.67;1.40;;;;;;;;;;5022882;28;20052;-68
2023/07/26 11:13:09;;;;;;;2.00;1.30;;;;;;;;;;5028021;28;20060;-68
2023/07/26 11:15:39;;;;;;;3.20;1.90;;;;;;;;;;5032628;28;20017;-68
2023/07/26 11:18:05;;;;;;;3.60;1.48;;;;;;;;;;5032435;28;20033;-68
2023/07/26 11:20:32;;;;;;;5.03;1.52;;;;;;;;;;5032856;28;20074;-68
2023/07/26 11:22:58;;;;;;;1.85;1.23;;;;;;;;;;5032432;28;20029;-69
2023/07/26 11:25:24;;;;;;;1.70;1.38;;;;;;;;;;5032690;28;20406;-68
2023/07/26 11:27:50;;;;;;;1.45;1.10;;;;;;;;;;5032693;28;20057;-68
2023/07/26 11:30:17;;;;;;;1.40;1.30;;;;;;;;;;5031095;28;20025;-68
2023/07/26 11:32:52;;;;;;;1.80;1.60;;;;;;;;;;5032430;28;20475;-68
2023/07/26 11:35:19;;;;;;;1.50;1.40;;;;;;;;;;5029707;28;20030;-68
2023/07/26 11:37:55;;;;;;;1.70;1.48;;;;;;;;;;5034579;28;20046;-68
2023/07/26 11:40:21;;;;;;;1.40;1.30;;;;;;;;;;5036342;28;20105;-68
2023/07/26 11:42:48;;;;;;;1.25;1.20;;;;;;;;;;5036200;28;20469;-68
2023/07/26 11:45:15;;;;;;;1.50;1.25;;;;;;;;;;5036136;28;20351;-69
2023/07/26 11:47:40;;;;;;;2.00;1.90;;;27.80;99.90;;;;;;5035949;28;20502;-70
2023/07/26 11:50:07;;;;;;;2.15;1.70;;;;;;;;;;5035948;28;20040;-69
2023/07/26 11:52:34;;;;;;;1.88;1.77;;;;;;;;;;5035771;28;20402;-69
2023/07/26 11:55:01;;;;;;;1.80;1.70;;;;;;;;;;5034486;28;20028;-69
2023/07/26 11:57:28;;;;;;;2.10;2.00;;;39.70;99.90;;;;;;5035622;28;20432;-69
2023/07/26 11:59:56;;;;;;;2.00;1.90;;;44.40;99.90;;;;;;5035562;28;20052;-69
2023/07/26 12:02:27;;;;;;;2.42;2.33;;;44.00;99.90;;;;;;5035954;28;20065;-70
2023/07/26 12:05:15;;;;;;;2.63;2.20;;;44.20;99.90;;;;;;5035564;28;20113;-70
2023/07/26 12:07:49;;;;;;;2.60;2.50;;;43.40;99.90;;;;;;5035821;28;20033;-70
2023/07/26 12:10:16;;;;;;;2.25;2.15;;;41.90;99.90;;;;;;5035869;28;20061;-69
2023/07/26 12:12:43;;;;;;;2.47;2.38;;;40.20;99.90;;;;;;5033903;28;20041;-70
2023/07/26 12:15:12;;;;;;;4.00;2.38;;;39.80;99.90;;;;;;5035556;28;20096;-70
2023/07/26 12:18:13;;;;;;;3.00;2.63;;;40.10;99.90;;;;;;5035569;28;20041;-69
2023/07/26 12:20:56;;;;;;;2.53;2.42;;;41.70;99.90;;;;;;5042432;28;20028;-70
2023/07/26 12:23:23;;;;;;;2.85;2.75;;;41.30;99.90;;;;;;5033384;28;20116;-69
2023/07/26 12:25:52;;;;;;;3.15;2.65;;;;;;;;;;5035253;28;20033;-69
2023/07/26 12:28:18;;;;;;;2.80;2.67;;;;;;;;;;5035128;28;20032;-69
2023/07/26 12:30:57;;;;;;;2.78;2.67;;;;;;;;;;5033959;28;20021;-69
2023/07/26 12:33:24;;;;;;;2.47;2.38;;;;;;;;;;5035088;28;20116;-69
2023/07/26 12:35:56;;;;;;;3.03;2.83;;;;;;;;;;5035341;28;20049;-69
2023/07/26 12:38:23;;;;;;;2.80;2.70;;;;;;;;;;5033705;28;20380;-68
2023/07/26 12:40:52;;;;;;;3.20;3.00;;;;;;;;;;5035174;28;20018;-69
2023/07/26 12:43:23;;;;;;;2.97;2.65;;;;;;;;;;5034876;28;20022;-69
2023/07/26 12:45:50;;;;;;;3.47;2.58;;;;;;;;;;5034890;28;20021;-69
2023/07/26 12:48:15;;;;;;;2.78;2.67;;;40.40;99.90;;;;;;5034073;28;20033;-69
2023/07/26 12:50:41;;;;;;;2.72;2.63;;;37.80;99.90;;;;;;5034457;28;20025;-69
2023/07/26 12:53:13;;;;;;;2.67;2.58;;;38.00;99.90;;;;;;5034724;28;20395;-71
2023/07/26 12:55:40;;;;;;;2.40;2.30;;;38.90;99.90;;;;;;5034953;28;20029;-69
2023/07/26 12:58:06;;;;;;;2.70;2.47;;;38.70;99.90;;;;;;5034577;28;20034;-70
2023/07/26 13:00:33;;;;;;;2.50;2.40;;;38.00;99.90;;;;;;5034389;28;20054;-70
2023/07/26 13:02:59;;;;;;;2.50;2.40;;;37.40;99.90;;;;;;5034586;28;20025;-70
2023/07/26 13:05:24;;;;;;;2.50;2.40;;;36.90;99.90;;;;;;5035021;28;20022;-70